Flight Track Log - Related Links

Times and Time Zones

All times are in EDT time to prevent confusion due to time zone crossing. See the ASQ4976 flight status page for this flight to view local times or setup timezone preferences in your user account.

Time Position Orientation Groundspeed Altitude Reporting Facility
EDT Latitude Longitude Course Direction KTS MPH feet Rate Location/Type
Tue 12:57:17 PM 42.7714 -73.8092 357° North 164 189 1,300  Level Boston Center
Tue 12:58:29 PM 42.8381 -73.8133 357° North 207 238 3,800 2,113 Climbing Boston Center
Tue 12:59:39 PM 42.8961 -73.8344 345° North 224 258 6,300 2,262 Climbing Boston Center
Tue 01:00:39 PM 42.9581 -73.8869 328° Northwest 224 258 8,700 2,100 Climbing Boston Center
Tue 01:01:39 PM 43.0117 -73.9281 331° Northwest 236 272 10,500 1,900 Climbing Boston Center
Tue 01:02:39 PM 43.0786 -73.9097 11° North 229 264 12,500 1,950 Climbing Boston Center
Tue 01:03:39 PM 43.0717 -73.8128 96° East 204 235 14,400 1,600 Climbing Boston Center
Tue 01:04:39 PM 43.0011 -73.7772 160° South 218 251 15,700 1,450 Climbing Boston Center
Tue 01:05:39 PM 42.9069 -73.8064 193° South 284 327 17,300 1,550 Climbing Boston Center
Tue 01:06:39 PM 42.8253 -73.8386 196° South 310 357 18,800 1,700 Climbing Boston Center
Tue 01:07:39 PM 42.7311 -73.8675 193° South 338 389 20,700 1,700 Climbing Boston Center
Tue 01:08:39 PM 42.6369 -73.9019 195° South 351 404 22,200 1,450 Climbing Boston Center
Tue 01:09:39 PM 42.5636 -73.9256 193° South 351 404 23,600 1,500 Climbing Boston Center
Tue 01:10:39 PM 42.4444 -73.9678 195° South 363 418 25,200 1,450 Climbing Boston Center
Tue 01:11:39 PM 42.3458 -73.9992 193° South 363 418 26,500 1,350 Climbing Boston Center
Tue 01:12:39 PM 42.2475 -74.0331 194° South 368 423 27,900 1,250 Climbing Boston Center
Tue 01:13:39 PM 42.1661 -74.0422 185° South 368 423 29,000 1,300 Climbing Boston Center
Tue 01:14:39 PM 42.0333 -73.9914 164° South 363 418 30,500 1,200 Climbing Boston Center
Tue 01:15:39 PM 41.9403 -73.9361 156° South 363 418 31,400 900 Climbing Boston Center
Tue 01:16:39 PM 41.8431 -73.8781 156° South 374 430 32,300 630 Climbing Boston Center
Tue 01:18:40 PM 41.6314 -73.8572 176° South 396 456 33,300 462 Climbing New York Center
Tue 01:19:41 PM 41.5544 -73.9314 216° Southwest 364 419 33,700 347 Climbing New York Center
Tue 01:20:41 PM 41.4706 -74.0381 224° Southwest 376 433 34,000 146 Climbing New York Center
Tue 01:21:44 PM 41.3861 -74.1475 224° Southwest 411 473 34,000  Level New York Center
Tue 01:22:41 PM 41.2869 -74.2639 221° Southwest 432 497 34,000  Level New York Center
Tue 01:23:43 PM 41.2006 -74.3669 222° Southwest 432 497 34,000  Level New York Center
Tue 01:24:44 PM 41.1139 -74.4753 223° Southwest 426 490 34,000  Level New York Center
Tue 01:25:00 PM 41.0968 -74.4939 223° Southwest  Level FlightAware Approximate
Tue 01:25:40 PM 41.0294 -74.5806 223° Southwest 426 490 34,000  Level New York Center
Tue 01:26:41 PM 40.9467 -74.6858 224° Southwest 426 490 34,000  Level New York Center
Tue 01:27:41 PM 40.8642 -74.7881 223° Southwest 419 482 34,000  Level New York Center
Tue 01:28:42 PM 40.7772 -74.8897 222° Southwest 419 482 34,000  Level New York Center
Tue 01:29:42 PM 40.6964 -74.9944 225° Southwest 413 475 34,000  Level New York Center
Tue 01:30:42 PM 40.6136 -75.0931 222° Southwest 407 468 34,000  Level New York Center
Tue 01:31:43 PM 40.5308 -75.1917 222° Southwest 407 468 34,000  Level New York Center
Tue 01:32:41 PM 40.4500 -75.2903 223° Southwest 407 468 34,000  Level New York Center
Tue 01:33:41 PM 40.3736 -75.3806 222° Southwest 407 468 34,000  Level New York Center
Tue 01:34:42 PM 40.2903 -75.4839 223° Southwest 407 468 34,000  Level New York Center
Tue 01:35:43 PM 40.2086 -75.5978 227° Southwest 414 476 34,000  Level New York Center
Tue 01:36:43 PM 40.1403 -75.7344 237° Southwest 435 501 34,000 305 Level New York Center
Tue 01:37:41 PM 40.0722 -75.8653 236° Southwest 440 506 34,600 763 Climbing New York Center
Tue 01:38:41 PM 40.0081 -75.9961 237° Southwest 445 512 35,500 694 Climbing New York Center
Tue 01:39:42 PM 39.9419 -76.1239 236° Southwest 434 499 36,000 246 Climbing New York Center
Tue 01:40:43 PM 39.8733 -76.2564 236° Southwest 440 506 36,000  Level New York Center
Tue 01:42:22 PM 39.7667 -76.4689 237° Southwest 449 517 36,000  Level Washington Center
Tue 01:43:19 PM 39.6928 -76.5919 232° Southwest 444 511 36,000  Level Washington Center
Tue 01:44:20 PM 39.6292 -76.7178 237° Southwest 438 504 36,000  Level Washington Center
Tue 01:45:22 PM 39.5550 -76.8564 235° Southwest 438 504 36,000  Level Washington Center
Tue 01:46:22 PM 39.4975 -76.9686 236° Southwest 432 497 36,000  Level Washington Center
Tue 01:47:20 PM 39.4150 -77.0636 222° Southwest 417 480 36,000  Level Washington Center
Tue 01:48:20 PM 39.3306 -77.1586 221° Southwest 404 465 36,000  Level Washington Center
Tue 01:49:21 PM 39.2539 -77.2667 228° Southwest 404 465 36,000  Level Washington Center
Tue 01:50:22 PM 39.1775 -77.3722 227° Southwest 410 472 36,000  Level Washington Center
Tue 01:51:20 PM 39.0986 -77.4825 227° Southwest 410 472 36,000  Level Washington Center
Tue 01:52:20 PM 39.0175 -77.5953 227° Southwest 426 490 36,000  Level Washington Center
Tue 01:53:21 PM 38.9258 -77.7208 227° Southwest 435 501 36,000 49 Level Washington Center
Tue 01:54:22 PM 38.8511 -77.8228 227° Southwest 440 506 36,100 454 Climbing Washington Center
Tue 01:55:20 PM 38.7567 -77.9556 228° Southwest 451 519 36,900 763 Climbing Washington Center
Tue 01:56:20 PM 38.6753 -78.0675 227° Southwest 446 513 37,600 545 Climbing Washington Center
Tue 01:57:21 PM 38.5936 -78.1789 227° Southwest 435 501 38,000 197 Climbing Washington Center
Tue 01:58:22 PM 38.5100 -78.2900 226° Southwest 435 501 38,000  Level Washington Center
Tue 01:59:22 PM 38.4281 -78.4036 227° Southwest 435 501 38,000  Level Washington Center
Tue 02:00:22 PM 38.3461 -78.5172 227° Southwest 441 507 38,000  Level Washington Center
Tue 02:01:20 PM 38.2772 -78.6069 226° Southwest 441 507 38,000  Level Washington Center
Tue 02:02:21 PM 38.1906 -78.7303 228° Southwest 441 507 38,000  Level Washington Center
Tue 02:03:22 PM 38.1042 -78.8456 226° Southwest 441 507 38,000  Level Washington Center
Tue 02:04:22 PM 38.0089 -78.9706 226° Southwest 441 507 38,000  Level Washington Center
Tue 02:05:20 PM 37.9264 -79.0800 226° Southwest 441 507 38,000  Level Washington Center
Tue 02:06:21 PM 37.8397 -79.1969 227° Southwest 441 507 38,000  Level Washington Center
Tue 02:07:22 PM 37.7589 -79.3114 228° Southwest 441 507 38,000  Level Washington Center
Tue 02:08:22 PM 37.6719 -79.4250 226° Southwest 441 507 38,000  Level Washington Center
Tue 02:09:20 PM 37.5911 -79.5389 228° Southwest 446 513 38,000  Level Washington Center
Tue 02:10:20 PM 37.5081 -79.6497 227° Southwest 446 513 38,000  Level Washington Center
Tue 02:11:21 PM 37.4247 -79.7708 229° Southwest 451 519 38,000  Level Washington Center
Tue 02:12:22 PM 37.3414 -79.8814 227° Southwest 451 519 38,000  Level Washington Center
Tue 02:13:22 PM 37.2669 -79.9814 227° Southwest 445 512 38,000  Level Washington Center
Tue 02:14:22 PM 37.1856 -80.0917 227° Southwest 445 512 38,000  Level Washington Center
Tue 02:15:33 PM 37.0733 -80.2383 226° Southwest 446 513 38,000  Level Atlanta Center
Tue 02:16:34 PM 36.9892 -80.3489 226° Southwest 446 513 38,000  Level Atlanta Center
Tue 02:17:34 PM 36.9092 -80.4617 228° Southwest 446 513 38,000  Level Atlanta Center
Tue 02:18:33 PM 36.8228 -80.5744 226° Southwest 437 503 38,000  Level Atlanta Center
Tue 02:19:33 PM 36.7444 -80.6839 228° Southwest 445 512 38,000  Level Atlanta Center
Tue 02:20:34 PM 36.6597 -80.7911 225° Southwest 433 498 38,000  Level Atlanta Center
Tue 02:21:34 PM 36.5772 -80.9031 227° Southwest 433 498 38,000  Level Atlanta Center
Tue 02:22:33 PM 36.4922 -81.0147 227° Southwest 433 498 38,000  Level Atlanta Center
Tue 02:23:33 PM 36.4075 -81.1236 226° Southwest 433 498 38,000  Level Atlanta Center
Tue 02:24:33 PM 36.3267 -81.2350 228° Southwest 438 504 38,000  Level Atlanta Center
Tue 02:25:33 PM 36.2517 -81.3328 226° Southwest 432 497 38,000  Level Atlanta Center
Tue 02:26:33 PM 36.1664 -81.4411 226° Southwest 432 497 38,000  Level Atlanta Center
Tue 02:27:33 PM 36.0831 -81.5542 228° Southwest 437 503 38,000  Level Atlanta Center
Tue 02:28:33 PM 35.9997 -81.6594 226° Southwest 432 497 38,000  Level Atlanta Center
Tue 02:29:33 PM 35.9142 -81.7722 227° Southwest 437 503 38,000 -400 Level Atlanta Center
Tue 02:30:33 PM 35.8264 -81.8797 225° Southwest 437 503 37,200 -950 Descending Atlanta Center
Tue 02:31:33 PM 35.7389 -81.9944 227° Southwest 453 521 36,100 -1,091 Descending Atlanta Center
Tue 02:32:34 PM 35.6489 -82.1119 227° Southwest 468 539 35,000 -550 Descending Atlanta Center
Tue 02:33:33 PM 35.5567 -82.2289 226° Southwest 473 544 35,000 -100 Level Atlanta Center
Tue 02:34:34 PM 35.4728 -82.3378 227° Southwest 456 525 34,800 -645 Descending Atlanta Center
Tue 02:35:34 PM 35.3700 -82.4572 223° Southwest 456 525 33,700 -1,109 Descending Atlanta Center
Tue 02:36:33 PM 35.2714 -82.5683 223° Southwest 470 541 32,600 -1,160 Descending Atlanta Center
Tue 02:37:33 PM 35.1725 -82.6744 221° Southwest 479 551 31,400 -1,100 Descending Atlanta Center
Tue 02:38:33 PM 35.0714 -82.7850 222° Southwest 484 557 30,400 -1,050 Descending Atlanta Center
Tue 02:39:33 PM 34.9722 -82.8931 222° Southwest 489 563 29,300 -1,091 Descending Atlanta Center
Tue 02:40:34 PM 34.8856 -82.9881 222° Southwest 484 557 28,200 -1,250 Descending Atlanta Center
Tue 02:41:33 PM 34.7839 -83.0903 220° Southwest 479 551 26,800 -1,412 Descending Atlanta Center
Tue 02:42:33 PM 34.6950 -83.1900 223° Southwest 458 527 25,400 -1,450 Descending Atlanta Center
Tue 02:43:33 PM 34.6039 -83.2919 223° Southwest 458 527 23,900 -1,587 Descending Atlanta Center
Tue 02:44:34 PM 34.5106 -83.3908 221° Southwest 453 521 22,200 -1,350 Descending Atlanta Center
Tue 02:45:33 PM 34.4192 -83.4897 222° Southwest 442 509 21,200 -1,815 Descending Atlanta Center
Tue 02:46:33 PM 34.3236 -83.5936 222° Southwest 437 503 18,600 -2,628 Descending Atlanta Center
Tue 02:47:34 PM 34.2425 -83.6794 221° Southwest 417 480 15,900 -2,800 Descending Atlanta Center
Tue 02:48:33 PM 34.1633 -83.7628 221° Southwest 394 453 13,000 -2,000 Descending Atlanta Center
Tue 02:49:34 PM 34.0925 -83.8406 222° Southwest 369 425 11,900 -843 Descending Atlanta Center
Tue 02:50:34 PM 34.0322 -83.9033 221° Southwest 321 369 11,300 -1,000 Descending Atlanta Center
Tue 02:51:34 PM 33.9675 -83.9661 219° Southwest 300 345 9,900 -1,150 Descending Atlanta Center
Tue 02:52:34 PM 33.8881 -83.9561 174° South 270 311 9,000 -450 Descending Atlanta Center
Tue 02:53:34 PM 33.8108 -83.9439 173° South 270 311 9,000 -202 Level Atlanta Center
Tue 02:54:33 PM 33.7442 -83.9364 175° South 275 316 8,600 -750 Descending Atlanta Center
Tue 02:55:34 PM 33.6669 -83.9289 175° South 275 316 7,500 -793 Descending Atlanta Center
Tue 02:56:34 PM 33.6294 -84.0014 238° Southwest 237 273 7,000 -635 Descending Atlanta Center
Tue 02:58:24 PM 33.6333 -84.1333 272° West 199 229 5,700 -847 Descending Atlanta TRACON
Tue 02:59:24 PM 33.6333 -84.2000 270° West 190 219 4,600 -1,050 Descending Atlanta TRACON
Tue 03:00:24 PM 33.6333 -84.2500 270° West 192 221 3,600 -950 Descending Atlanta TRACON
Tue 03:01:24 PM 33.6333 -84.3167 270° West 168 193 2,700 -857 Descending Atlanta TRACON
Tue 03:02:30 PM 33.6333 -84.3667 270° West 143 165 1,800 -818 Descending Atlanta TRACON
Tue 03:04:00 PM 33.6367 -84.4279 270° West  Level Estimated
Tue 03:11:00 PM 33.6367 -84.4279 64° Northeast  Level Estimated
Tue 03:12:00 PM 33.6367 -84.4279 64° Northeast  Level Estimated

Login

Don't have an account? Register now (free) for customized features, flight alerts, and more!